Atlantic - Newfoundland: Past 24 Hour Conditions

 

Natashquan Airport

10:00 PM EST 05 March 2015
Disclaimer

This table is a summary of hourly weather conditions for the past 24 hours.
Please note that these observations might not always be representative of weather conditions over their associated marine area.

Date / Time
(EST)
Wind(knots) Conditions Visibility(km) Pressure(kPa) Air tempC) Relative humidity(%) Dew pointC) Wind Chill
05 March 2015
22:00 WNW 11 Clear 16 101.4 -20 56 -27 -31
21:00 WNW 7 Clear 16 101.3 -19 52 -27 -28
20:00 WNW 15 Clear 16 101.2 -18 52 -26 -30
19:00 WNW 12 Mainly Clear 16 101.1 -17 52 -25 -27
18:00 NW 13 Clear 16 100.9 -16 55 -23 -27
17:00 NW 16 gust 21 Clear 16 100.7 -15 54 -22 -26
16:00 NW 14 gust 19 Sunny 16 100.5 -13 51 -21 -23
15:00 NW 18 gust 24 Light Snow 16 100.4 -12 52 -20 -23
14:00 WNW 17 gust 22 Mainly Sunny 16 100.2 -12 52 -20 -22
13:00 W 21 gust 27 Light Snow 13 100.1 -11 60 -18 -22
12:00 W 17 gust 27 Mostly Cloudy 15 100.1 -11 60 -18 -21
11:00 W 16 gust 25 Light Snow 15 100.1 -11 64 -17 -21
10:00 WNW 16 gust 22 Sunny 16 100.0 -11 61 -17 -21
9:00 W 19 gust 24 Sunny 16 99.9 -11 63 -17 -22
8:00 W 14 gust 21 Sunny 16 99.8 -12 67 -17 -21
7:00 WNW 14 gust 22 Sunny 16 99.8 -11 73 -15 -20
6:00 WNW 18 Mainly Sunny 16 99.7 -10 74 -14 -21
5:00 WNW 15 gust 21 Mostly Cloudy 16 99.6 -9 70 -13 -17
4:00 W 20 gust 26 Light Snow 11 99.5 -7 76 -11 -17
3:00 W 20 gust 27 Light Snow 2 99.5 -6 80 -9 -16
2:00 WSW 19 gust 25 Light Snow 16 99.5 -6 83 -9 -15
1:00 SW 14 gust 21 Mostly Cloudy 16 99.5 -6 96 -6 -14
0:00 calm Snow 0.6 99.5 -15 89 -16 *
04 March 2015
23:00 WSW 2 Light Snow 16 99.5 -10 94 -11 -13
22:00 NW 2 Mostly Cloudy 16 99.5 -11 95 -12 -13

Zoom-in to make a selection

Map of Atlantic - Newfoundland marine weather areas Southwestern Grand Banks - 44138 Banquereau - 44139 Tail of the Bank - 44140 Nickerson Bank - 44251 Northeast Burgeo Bank - 44255 Blanc-Sablon Airport Cap Whittle Chevery Natashquan Airport Heath Point Miscou Island Grand Étang Ingonish Beach North Mountain St.Paul Island J.A. Douglas McCurdy Sydney Airport Charlottetown Airport East Point North Cape Argentia Bonavista Burgeo Cape Race Corner Brook Daniel's Harbour Englee Ferolle Point La Scie Port aux Basques Rocky Harbour Sagona Island St. Anthony Airport St. John's Int'l Airport St. Lawrence Stephenville Airport Twillingate Winterland Wreckhouse Cartwright Airport Mary's Harbour Grates Cove Pool's Island Marticot Island Long Pond Îles de la Madeleine Airport
Legend:
buoy Buoy
land station Land Station

Atlantic - Newfoundland Area

Another Region

What we are doing

Date modified: